| time (UTC) | temp C | wind direction | speed KPH | gust KPH | rain 1hr cm | rain 24hr cm | rain mn cm | humidity % | barometer mb |
| 20260508015813 | 17 | 25 | 3.2 | 4.8 | 0.00 | 0.20 | 0.20 | 49 | 1012.3 |
| 20260508014313 | 17 | 339 | 1.6 | 4.8 | 0.00 | 0.20 | 0.20 | 47 | 1012.2 |
| 20260508012813 | 17 | 350 | 3.2 | 8.0 | 0.00 | 0.20 | 0.20 | 48 | 1012.1 |
| 20260508011313 | 17 | 328 | 3.2 | 9.7 | 0.00 | 0.20 | 0.20 | 49 | 1012.2 |
| 20260508005812 | 18 | 308 | 1.6 | 4.8 | 0.00 | 0.20 | 0.20 | 42 | 1012.3 |
| 20260508004312 | 17 | 72 | 3.2 | 4.8 | 0.00 | 0.20 | 0.20 | 44 | 1012.6 |
| 20260508002743 | 16 | 64 | 0.0 | 3.2 | 0.00 | 0.20 | 0.20 | 49 | 1012.7 |
| 20260508001243 | 16 | 240 | 1.6 | 3.2 | 0.00 | 0.20 | 0.20 | 49 | 1012.9 |
| 20260507235743 | 17 | 248 | 1.6 | 3.2 | 0.00 | 0.20 | 0.20 | 45 | 1012.6 |
| 20260507234242 | 17 | 261 | 0.0 | 1.6 | 0.00 | 0.20 | 0.20 | 47 | 1012.4 |
| 20260507232743 | 16 | 270 | 3.2 | 4.8 | 0.00 | 0.20 | 0.20 | 51 | 1012.4 |
| 20260507231243 | 16 | 238 | 4.8 | 12.9 | 0.00 | 0.20 | 0.20 | 54 | 1012.6 |
| 20260507225742 | 16 | 231 | 11.3 | 19.3 | 0.00 | 0.20 | 0.20 | 53 | 1012.3 |
| 20260507224242 | 15 | 233 | 8.0 | 14.5 | 0.00 | 0.20 | 0.20 | 57 | 1012.5 |
| 20260507222742 | 16 | 206 | 12.9 | 19.3 | 0.00 | 0.20 | 0.20 | 52 | 1012.3 |
| 20260507221242 | 18 | 111 | 3.2 | 4.8 | 0.00 | 0.20 | 0.20 | 43 | 1012.0 |
| 20260507215742 | 18 | 177 | 1.6 | 4.8 | 0.00 | 0.20 | 0.20 | 41 | 1012.0 |
| 20260507214242 | 18 | 217 | 3.2 | 4.8 | 0.00 | 0.20 | 0.20 | 43 | 1012.1 |
| 20260507212742 | 19 | 202 | 8.0 | 9.7 | 0.00 | 0.20 | 0.20 | 43 | 1012.3 |
| 20260507211242 | 19 | 254 | 8.0 | 9.7 | 0.00 | 0.20 | 0.20 | 43 | 1012.4 |
| 20260507205742 | 18 | 205 | 12.9 | 14.5 | 0.00 | 0.20 | 0.20 | 44 | 1012.7 |
| 20260507204242 | 18 | 204 | 11.3 | 19.3 | 0.00 | 0.20 | 0.20 | 46 | 1012.7 |
| 20260507202742 | 18 | 151 | 4.8 | 8.0 | 0.00 | 0.20 | 0.20 | 46 | 1012.8 |
| 20260507201242 | 18 | 84 | 3.2 | 8.0 | 0.00 | 0.20 | 0.20 | 41 | 1012.6 |
| 20260507195742 | 19 | 112 | 3.2 | 3.2 | 0.00 | 0.20 | 0.20 | 37 | 1012.6 |
| 20260507194242 | 19 | 162 | 9.7 | 12.9 | 0.00 | 0.20 | 0.20 | 42 | 1012.7 |
| 20260507192742 | 18 | 146 | 4.8 | 4.8 | 0.00 | 0.20 | 0.20 | 40 | 1012.8 |
| 20260507191242 | 17 | 165 | 1.6 | 1.6 | 0.00 | 0.20 | 0.20 | 47 | 1012.9 |
| 20260507185742 | 18 | 134 | 4.8 | 12.9 | 0.00 | 0.20 | 0.20 | 48 | 1013.2 |
| 20260507184242 | 17 | 202 | 3.2 | 11.3 | 0.00 | 0.20 | 0.20 | 53 | 1013.3 |
| 20260507182742 | 17 | 206 | 8.0 | 12.9 | 0.00 | 0.20 | 0.20 | 52 | 1013.4 |
| 20260507181242 | 16 | 206 | 9.7 | 12.9 | 0.00 | 0.20 | 0.20 | 58 | 1013.5 |
| 20260507175742 | 16 | 203 | 8.0 | 11.3 | 0.00 | 0.20 | 0.20 | 57 | 1013.6 |
| 20260507174242 | 16 | 241 | 3.2 | 8.0 | 0.00 | 0.20 | 0.20 | 58 | 1013.2 |
| 20260507172742 | 16 | 98 | 3.2 | 4.8 | 0.00 | 0.20 | 0.20 | 55 | 1013.1 |
| 20260507171242 | 17 | 155 | 3.2 | 8.0 | 0.00 | 0.20 | 0.20 | 55 | 1013.1 |
| 20260507165742 | 16 | 134 | 3.2 | 4.8 | 0.00 | 0.20 | 0.20 | 56 | 1013.0 |
| 20260507164242 | 16 | 96 | 4.8 | 8.0 | 0.00 | 0.20 | 0.20 | 59 | 1013.1 |
| 20260507162742 | 15 | 152 | 1.6 | 4.8 | 0.00 | 0.20 | 0.20 | 61 | 1013.2 |
| 20260507161242 | 14 | 139 | 1.6 | 3.2 | 0.00 | 0.20 | 0.20 | 66 | 1013.3 |
| 20260507155742 | 13 | 138 | 1.6 | 3.2 | 0.00 | 0.20 | 0.20 | 67 | 1013.5 |
| 20260507154242 | 13 | 236 | 0.0 | 1.6 | 0.00 | 0.20 | 0.20 | 72 | 1013.5 |
| 20260507152742 | 12 | 198 | 1.6 | 1.6 | 0.00 | 0.20 | 0.20 | 72 | 1013.4 |
| 20260507151242 | 12 | 229 | 1.6 | 3.2 | 0.00 | 0.20 | 0.20 | 75 | 1013.4 |
| 20260507145742 | 11 | 272 | 1.6 | 4.8 | 0.00 | 0.20 | 0.20 | 80 | 1013.2 |
| 20260507144242 | 11 | 131 | 1.6 | 3.2 | 0.00 | 0.20 | 0.20 | 80 | 1013.6 |
| 20260507142742 | 11 | 220 | 0.0 | 0.0 | 0.00 | 0.20 | 0.20 | 81 | 1013.2 |
| 20260507141242 | 10 | 54 | 0.0 | 0.0 | 0.00 | 0.20 | 0.20 | 82 | 1012.8 |
| 20260507135742 | 10 | 77 | 0.0 | 1.6 | 0.00 | 0.20 | 0.20 | 83 | 1012.8 |
| 20260507134242 | 9 | 77 | 0.0 | 1.6 | 0.00 | 0.20 | 0.20 | 87 | 1012.7 |
| 20260507132742 | 8 | 31 | 0.0 | 0.0 | 0.00 | 0.20 | 0.20 | 87 | 1012.7 |
| 20260507131242 | 8 | 302 | 0.0 | 0.0 | 0.00 | 0.20 | 0.20 | 86 | 1012.4 |
| 20260507125742 | 8 | 248 | 0.0 | 0.0 | 0.00 | 0.20 | 0.20 | 86 | 1012.5 |
| 20260507124242 | 8 | 248 | 0.0 | 0.0 | 0.00 | 0.20 | 0.20 | 85 | 1012.2 |
| 20260507122742 | 8 | 245 | 1.6 | 3.2 | 0.00 | 0.20 | 0.20 | 84 | 1012.3 |
| 20260507121242 | 8 | 236 | 0.0 | 1.6 | 0.00 | 0.20 | 0.20 | 86 | 1012.2 |
| 20260507115742 | 8 | 201 | 0.0 | 1.6 | 0.00 | 0.20 | 0.20 | 83 | 1011.9 |
| 20260507114242 | 9 | 279 | 0.0 | 0.0 | 0.00 | 0.20 | 0.20 | 82 | 1011.8 |
| 20260507112742 | 10 | 279 | 0.0 | 0.0 | 0.00 | 0.20 | 0.20 | 82 | 1012.0 |
| 20260507111242 | 10 | 335 | 0.0 | 0.0 | 0.00 | 0.20 | 0.20 | 81 | 1012.1 |
| 20260507105742 | 10 | 39 | 0.0 | 4.8 | 0.03 | 0.20 | 0.20 | 79 | 1012.1 |
| 20260507104242 | 10 | 64 | 1.6 | 3.2 | 0.18 | 0.20 | 0.20 | 79 | 1012.0 |
| 20260507102742 | 10 | 140 | 1.6 | 4.8 | 0.18 | 0.20 | 0.20 | 75 | 1012.1 |
| 20260507101242 | 10 | 156 | 8.0 | 11.3 | 0.18 | 0.20 | 0.20 | 76 | 1012.5 |
| 20260507095742 | 10 | 119 | 16.1 | 29.0 | 0.15 | 0.18 | 0.18 | 79 | 1013.3 |
| 20260507094242 | 12 | 116 | 25.7 | 32.2 | 0.00 | 0.03 | 0.03 | 69 | 1012.8 |
| 20260507092742 | 10 | 108 | 4.8 | 12.9 | 0.00 | 0.03 | 0.03 | 80 | 1012.0 |
| 20260507091242 | 10 | 145 | 0.0 | 3.2 | 0.00 | 0.03 | 0.03 | 81 | 1011.0 |
| 20260507085742 | 11 | 193 | 0.0 | 0.0 | 0.00 | 0.03 | 0.03 | 76 | 1010.6 |
| 20260507084212 | 10 | 186 | 0.0 | 0.0 | 0.00 | 0.03 | 0.03 | 77 | 1010.6 |
| 20260507082642 | 11 | 235 | 0.0 | 0.0 | 0.00 | 0.03 | 0.03 | 74 | 1010.5 |
| 20260507081112 | 11 | 229 | 0.0 | 0.0 | 0.00 | 0.03 | 0.03 | 72 | 1010.5 |
| 20260507075542 | 11 | 211 | 0.0 | 0.0 | 0.00 | 0.03 | 0.03 | 70 | 1010.4 |
| 20260507074012 | 12 | 268 | 0.0 | 1.6 | 0.00 | 0.03 | 0.03 | 66 | 1010.2 |
| 20260507072442 | 12 | 45 | 0.0 | 1.6 | 0.00 | 0.03 | 0.03 | 64 | 1010.2 |
| 20260507070912 | 12 | 252 | 0.0 | 1.6 | 0.00 | 0.03 | 0.03 | 63 | 1010.3 |
| 20260507065342 | 13 | 63 | 0.0 | 1.6 | 0.03 | 0.03 | 0.03 | 62 | 1010.4 |
| 20260507063842 | 13 | 53 | 4.8 | 9.7 | 0.03 | 0.03 | 0.03 | 62 | 1010.2 |
| 20260507062342 | 13 | 234 | 8.0 | 8.0 | 0.03 | 0.03 | 0.03 | 59 | 1010.2 |
| 20260507060842 | 14 | 200 | 11.3 | 11.3 | 0.03 | 0.03 | 0.03 | 57 | 1010.9 |
| 20260507055342 | 14 | 120 | 11.3 | 35.4 | 0.00 | 0.00 | 0.00 | 61 | 1011.0 |
| 20260507053842 | 15 | 124 | 9.7 | 16.1 | 0.00 | 0.00 | 0.00 | 58 | 1010.7 |
| 20260507052342 | 15 | 136 | 4.8 | 11.3 | 0.00 | 0.00 | 0.00 | 54 | 1010.4 |
| 20260507050842 | 15 | 105 | 25.7 | 33.8 | 0.00 | 0.00 | 0.00 | 49 | 1011.0 |
| 20260507045342 | 16 | 148 | 12.9 | 25.7 | 0.00 | 0.00 | 0.00 | 47 | 1010.8 |
| 20260507043842 | 16 | 111 | 20.9 | 32.2 | 0.00 | 0.00 | 0.00 | 48 | 1010.8 |
| 20260507042342 | 16 | 102 | 9.7 | 12.9 | 0.00 | 0.00 | 0.00 | 44 | 1010.4 |
| 20260507040842 | 16 | 99 | 3.2 | 9.7 | 0.00 | 0.00 | 0.00 | 44 | 1010.1 |
| 20260507035342 | 17 | 82 | 3.2 | 4.8 | 0.00 | 0.00 | 0.00 | 43 | 1010.1 |
| 20260507033842 | 17 | 63 | 4.8 | 8.0 | 0.00 | 0.00 | 0.00 | 43 | 1010.0 |
| 20260507032342 | 17 | 70 | 4.8 | 11.3 | 0.00 | 0.00 | 0.00 | 42 | 1009.7 |
| 20260507030842 | 17 | 71 | 9.7 | 14.5 | 0.00 | 0.00 | 0.00 | 42 | 1009.5 |
| 20260507025342 | 18 | 73 | 9.7 | 14.5 | 0.00 | 0.00 | 0.00 | 40 | 1009.4 |
| 20260507023842 | 17 | 110 | 3.2 | 9.7 | 0.00 | 0.00 | 0.00 | 37 | 1009.4 |
| 20260507022342 | 17 | 113 | 4.8 | 9.7 | 0.00 | 0.00 | 0.00 | 40 | 1009.2 |
| 20260507020842 | 18 | 123 | 9.7 | 14.5 | 0.00 | 0.00 | 0.00 | 37 | 1009.2 |